sensor_id;sensor_type;location;lat;lon;timestamp;pressure;altitude;pressure_sealevel;temperature;humidity
73633;BME280;61927;50.080;14.418;2024-02-28T00:01:51;99388.72;;;6.44;88.12
73633;BME280;61927;50.080;14.418;2024-02-28T00:04:17;99390.00;;;6.35;88.23
73633;BME280;61927;50.080;14.418;2024-02-28T00:06:43;99390.63;;;6.22;89.40
73633;BME280;61927;50.080;14.418;2024-02-28T00:09:10;99391.59;;;6.19;89.79
73633;BME280;61927;50.080;14.418;2024-02-28T00:11:42;99392.94;;;6.09;90.10
73633;BME280;61927;50.080;14.418;2024-02-28T00:14:07;99387.19;;;6.20;89.60
73633;BME280;61927;50.080;14.418;2024-02-28T00:16:33;99392.72;;;6.13;90.25
73633;BME280;61927;50.080;14.418;2024-02-28T00:18:58;99389.34;;;6.30;89.55
73633;BME280;61927;50.080;14.418;2024-02-28T00:21:24;99385.81;;;6.11;90.13
73633;BME280;61927;50.080;14.418;2024-02-28T00:23:50;99389.97;;;6.17;89.74
73633;BME280;61927;50.080;14.418;2024-02-28T00:26:15;99390.13;;;5.93;90.72
73633;BME280;61927;50.080;14.418;2024-02-28T00:28:41;99388.28;;;5.95;91.15
73633;BME280;61927;50.080;14.418;2024-02-28T00:31:06;99395.06;;;6.01;90.53
73633;BME280;61927;50.080;14.418;2024-02-28T00:33:32;99388.00;;;6.01;90.55
73633;BME280;61927;50.080;14.418;2024-02-28T00:35:58;99383.66;;;6.00;90.76
73633;BME280;61927;50.080;14.418;2024-02-28T00:38:23;99379.72;;;5.90;90.75
73633;BME280;61927;50.080;14.418;2024-02-28T00:40:49;99381.69;;;6.05;90.73
73633;BME280;61927;50.080;14.418;2024-02-28T00:43:14;99384.00;;;5.93;91.45
73633;BME280;61927;50.080;14.418;2024-02-28T00:45:40;99391.13;;;5.91;90.98
73633;BME280;61927;50.080;14.418;2024-02-28T00:48:06;99385.91;;;5.89;91.33
73633;BME280;61927;50.080;14.418;2024-02-28T00:50:32;99376.03;;;5.94;90.71
73633;BME280;61927;50.080;14.418;2024-02-28T00:52:57;99383.16;;;5.92;90.63
73633;BME280;61927;50.080;14.418;2024-02-28T00:55:23;99385.09;;;5.87;90.70
73633;BME280;61927;50.080;14.418;2024-02-28T00:57:49;99378.25;;;6.03;90.40
73633;BME280;61927;50.080;14.418;2024-02-28T01:00:14;99383.00;;;5.95;90.71
73633;BME280;61927;50.080;14.418;2024-02-28T01:02:40;99385.09;;;6.07;89.47
73633;BME280;61927;50.080;14.418;2024-02-28T01:05:09;99386.22;;;5.81;91.16
73633;BME280;61927;50.080;14.418;2024-02-28T01:07:34;99381.44;;;5.91;91.14
73633;BME280;61927;50.080;14.418;2024-02-28T01:10:00;99384.78;;;5.95;91.20
73633;BME280;61927;50.080;14.418;2024-02-28T01:12:26;99389.28;;;5.93;90.30
73633;BME280;61927;50.080;14.418;2024-02-28T01:14:51;99391.34;;;5.84;91.24
73633;BME280;61927;50.080;14.418;2024-02-28T01:17:17;99389.56;;;5.85;91.19
73633;BME280;61927;50.080;14.418;2024-02-28T01:19:43;99381.16;;;5.97;90.41
73633;BME280;61927;50.080;14.418;2024-02-28T01:22:08;99393.00;;;5.87;90.79
73633;BME280;61927;50.080;14.418;2024-02-28T01:24:34;99392.91;;;5.90;91.34
73633;BME280;61927;50.080;14.418;2024-02-28T01:27:00;99398.94;;;5.92;90.92
73633;BME280;61927;50.080;14.418;2024-02-28T01:29:25;99400.78;;;5.90;90.84
73633;BME280;61927;50.080;14.418;2024-02-28T01:31:51;99407.56;;;5.96;90.72
73633;BME280;61927;50.080;14.418;2024-02-28T01:34:17;99402.44;;;5.93;90.89
73633;BME280;61927;50.080;14.418;2024-02-28T01:36:42;99396.84;;;6.00;90.71
73633;BME280;61927;50.080;14.418;2024-02-28T01:39:08;99405.44;;;5.83;90.67
73633;BME280;61927;50.080;14.418;2024-02-28T01:41:33;99408.72;;;5.89;90.54
73633;BME280;61927;50.080;14.418;2024-02-28T01:43:59;99407.78;;;5.91;90.79
73633;BME280;61927;50.080;14.418;2024-02-28T01:46:28;99404.44;;;5.86;91.09
73633;BME280;61927;50.080;14.418;2024-02-28T01:48:55;99404.84;;;5.77;90.52
73633;BME280;61927;50.080;14.418;2024-02-28T01:51:25;99403.53;;;5.87;89.95
73633;BME280;61927;50.080;14.418;2024-02-28T01:53:53;99412.94;;;5.72;91.58
73633;BME280;61927;50.080;14.418;2024-02-28T01:56:20;99413.13;;;5.88;90.52
73633;BME280;61927;50.080;14.418;2024-02-28T01:58:47;99408.00;;;5.85;90.74
73633;BME280;61927;50.080;14.418;2024-02-28T02:01:16;99419.25;;;5.89;90.75
73633;BME280;61927;50.080;14.418;2024-02-28T02:03:43;99413.41;;;5.82;90.89
73633;BME280;61927;50.080;14.418;2024-02-28T02:06:08;99413.13;;;5.88;90.38
73633;BME280;61927;50.080;14.418;2024-02-28T02:08:34;99412.06;;;5.94;90.76
73633;BME280;61927;50.080;14.418;2024-02-28T02:11:00;99409.09;;;6.01;89.01
73633;BME280;61927;50.080;14.418;2024-02-28T02:13:25;99410.47;;;5.90;89.92
73633;BME280;61927;50.080;14.418;2024-02-28T02:15:51;99406.84;;;5.92;89.86
73633;BME280;61927;50.080;14.418;2024-02-28T02:18:16;99408.00;;;5.85;89.43
73633;BME280;61927;50.080;14.418;2024-02-28T02:20:44;99408.78;;;5.87;89.89
73633;BME280;61927;50.080;14.418;2024-02-28T02:23:12;99414.25;;;5.82;89.46
73633;BME280;61927;50.080;14.418;2024-02-28T02:25:48;99404.13;;;5.73;90.11
73633;BME280;61927;50.080;14.418;2024-02-28T02:28:14;99405.63;;;5.79;90.43
73633;BME280;61927;50.080;14.418;2024-02-28T02:30:40;99406.28;;;5.84;90.28
73633;BME280;61927;50.080;14.418;2024-02-28T02:33:07;99415.78;;;5.88;89.52
73633;BME280;61927;50.080;14.418;2024-02-28T02:35:35;99421.78;;;6.12;89.26
73633;BME280;61927;50.080;14.418;2024-02-28T02:38:01;99410.13;;;6.18;88.49
73633;BME280;61927;50.080;14.418;2024-02-28T02:40:27;99418.16;;;6.14;88.26
73633;BME280;61927;50.080;14.418;2024-02-28T02:42:52;99422.78;;;6.09;88.86
73633;BME280;61927;50.080;14.418;2024-02-28T02:45:18;99421.44;;;6.20;88.27
73633;BME280;61927;50.080;14.418;2024-02-28T02:47:44;99422.94;;;5.84;89.73
73633;BME280;61927;50.080;14.418;2024-02-28T02:50:09;99421.09;;;5.87;89.59
73633;BME280;61927;50.080;14.418;2024-02-28T02:52:35;99421.16;;;5.85;89.91
73633;BME280;61927;50.080;14.418;2024-02-28T02:55:01;99426.59;;;6.02;89.07
73633;BME280;61927;50.080;14.418;2024-02-28T02:57:27;99423.03;;;6.03;88.30
73633;BME280;61927;50.080;14.418;2024-02-28T02:59:53;99425.59;;;6.05;88.19
73633;BME280;61927;50.080;14.418;2024-02-28T03:02:18;99420.59;;;6.19;87.52
73633;BME280;61927;50.080;14.418;2024-02-28T03:04:44;99427.13;;;6.10;87.85
73633;BME280;61927;50.080;14.418;2024-02-28T03:07:10;99428.31;;;6.03;88.36
73633;BME280;61927;50.080;14.418;2024-02-28T03:09:35;99438.06;;;6.01;88.09
73633;BME280;61927;50.080;14.418;2024-02-28T03:12:01;99444.31;;;5.99;88.56
73633;BME280;61927;50.080;14.418;2024-02-28T03:14:26;99446.28;;;5.94;89.03
73633;BME280;61927;50.080;14.418;2024-02-28T03:16:53;99446.16;;;5.97;87.70
73633;BME280;61927;50.080;14.418;2024-02-28T03:19:19;99452.41;;;5.94;87.97
73633;BME280;61927;50.080;14.418;2024-02-28T03:21:45;99449.97;;;5.90;88.65
73633;BME280;61927;50.080;14.418;2024-02-28T03:24:10;99458.91;;;5.86;88.15
73633;BME280;61927;50.080;14.418;2024-02-28T03:26:36;99454.78;;;6.00;88.39
73633;BME280;61927;50.080;14.418;2024-02-28T03:29:02;99457.19;;;6.25;87.77
73633;BME280;61927;50.080;14.418;2024-02-28T03:31:28;99461.09;;;6.17;86.98
73633;BME280;61927;50.080;14.418;2024-02-28T03:33:54;99465.31;;;6.21;86.57
73633;BME280;61927;50.080;14.418;2024-02-28T03:36:19;99470.66;;;6.19;87.14
73633;BME280;61927;50.080;14.418;2024-02-28T03:38:45;99467.34;;;6.14;87.78
73633;BME280;61927;50.080;14.418;2024-02-28T03:41:11;99466.09;;;6.23;86.82
73633;BME280;61927;50.080;14.418;2024-02-28T03:43:36;99468.91;;;6.38;86.44
73633;BME280;61927;50.080;14.418;2024-02-28T03:46:02;99480.31;;;6.19;86.43
73633;BME280;61927;50.080;14.418;2024-02-28T03:48:28;99472.69;;;5.92;87.65
73633;BME280;61927;50.080;14.418;2024-02-28T03:50:53;99468.94;;;6.18;87.17
73633;BME280;61927;50.080;14.418;2024-02-28T03:53:19;99483.16;;;6.14;86.37
73633;BME280;61927;50.080;14.418;2024-02-28T03:55:45;99485.13;;;6.29;86.80
73633;BME280;61927;50.080;14.418;2024-02-28T03:58:10;99486.47;;;6.19;86.32
73633;BME280;61927;50.080;14.418;2024-02-28T04:00:36;99486.00;;;6.09;87.11
73633;BME280;61927;50.080;14.418;2024-02-28T04:03:02;99489.63;;;6.27;86.42
73633;BME280;61927;50.080;14.418;2024-02-28T04:05:29;99489.34;;;6.33;86.21
73633;BME280;61927;50.080;14.418;2024-02-28T04:07:54;99482.22;;;6.35;86.02
73633;BME280;61927;50.080;14.418;2024-02-28T04:10:20;99489.81;;;6.23;86.86
73633;BME280;61927;50.080;14.418;2024-02-28T04:12:46;99488.69;;;6.28;85.91
73633;BME280;61927;50.080;14.418;2024-02-28T04:15:12;99486.78;;;6.11;87.18
73633;BME280;61927;50.080;14.418;2024-02-28T04:17:38;99493.75;;;6.12;86.90
73633;BME280;61927;50.080;14.418;2024-02-28T04:20:09;99492.13;;;6.10;87.10
73633;BME280;61927;50.080;14.418;2024-02-28T04:22:34;99499.22;;;6.08;87.37
73633;BME280;61927;50.080;14.418;2024-02-28T04:25:00;99500.22;;;6.05;87.74
73633;BME280;61927;50.080;14.418;2024-02-28T04:27:25;99504.25;;;6.14;87.15
73633;BME280;61927;50.080;14.418;2024-02-28T04:29:51;99519.00;;;6.18;87.28
73633;BME280;61927;50.080;14.418;2024-02-28T04:32:16;99513.06;;;6.13;87.19
73633;BME280;61927;50.080;14.418;2024-02-28T04:34:42;99519.06;;;6.17;87.18
73633;BME280;61927;50.080;14.418;2024-02-28T04:37:07;99525.13;;;6.19;86.62
73633;BME280;61927;50.080;14.418;2024-02-28T04:39:33;99526.44;;;6.08;86.26
73633;BME280;61927;50.080;14.418;2024-02-28T04:41:59;99524.91;;;5.81;88.08
73633;BME280;61927;50.080;14.418;2024-02-28T04:44:24;99524.91;;;5.81;87.75
73633;BME280;61927;50.080;14.418;2024-02-28T04:46:50;99530.00;;;5.86;87.69
73633;BME280;61927;50.080;14.418;2024-02-28T04:49:15;99532.16;;;5.98;88.08
73633;BME280;61927;50.080;14.418;2024-02-28T04:51:41;99528.16;;;5.88;88.20
73633;BME280;61927;50.080;14.418;2024-02-28T04:54:07;99527.50;;;5.82;87.96
73633;BME280;61927;50.080;14.418;2024-02-28T04:56:32;99529.88;;;5.89;87.93
73633;BME280;61927;50.080;14.418;2024-02-28T04:58:58;99528.34;;;5.83;88.15
73633;BME280;61927;50.080;14.418;2024-02-28T05:01:23;99532.47;;;5.90;87.86
73633;BME280;61927;50.080;14.418;2024-02-28T05:03:49;99531.28;;;5.97;87.54
73633;BME280;61927;50.080;14.418;2024-02-28T05:06:14;99535.03;;;5.92;87.34
73633;BME280;61927;50.080;14.418;2024-02-28T05:08:40;99540.72;;;6.03;87.46
73633;BME280;61927;50.080;14.418;2024-02-28T05:11:05;99542.09;;;5.91;87.67
73633;BME280;61927;50.080;14.418;2024-02-28T05:13:31;99535.09;;;5.90;87.82
73633;BME280;61927;50.080;14.418;2024-02-28T05:15:56;99536.81;;;5.91;87.77
73633;BME280;61927;50.080;14.418;2024-02-28T05:18:22;99532.56;;;5.87;88.24
73633;BME280;61927;50.080;14.418;2024-02-28T05:20:48;99532.69;;;5.84;87.21
73633;BME280;61927;50.080;14.418;2024-02-28T05:23:13;99538.41;;;5.95;87.38
73633;BME280;61927;50.080;14.418;2024-02-28T05:25:40;99538.41;;;5.95;87.04
73633;BME280;61927;50.080;14.418;2024-02-28T05:28:06;99545.47;;;6.15;86.43
73633;BME280;61927;50.080;14.418;2024-02-28T05:30:31;99555.34;;;6.30;85.62
73633;BME280;61927;50.080;14.418;2024-02-28T05:32:57;99556.94;;;6.34;84.97
73633;BME280;61927;50.080;14.418;2024-02-28T05:35:22;99564.63;;;6.19;85.81
73633;BME280;61927;50.080;14.418;2024-02-28T05:37:53;99564.97;;;6.31;84.90
73633;BME280;61927;50.080;14.418;2024-02-28T05:40:18;99568.66;;;6.07;85.90
73633;BME280;61927;50.080;14.418;2024-02-28T05:42:44;99572.25;;;5.82;86.69
73633;BME280;61927;50.080;14.418;2024-02-28T05:45:10;99569.50;;;6.07;86.71
73633;BME280;61927;50.080;14.418;2024-02-28T05:47:36;99570.34;;;5.86;87.17
73633;BME280;61927;50.080;14.418;2024-02-28T05:50:01;99577.28;;;5.89;87.04
73633;BME280;61927;50.080;14.418;2024-02-28T05:52:27;99579.38;;;6.02;86.62
73633;BME280;61927;50.080;14.418;2024-02-28T05:54:52;99584.56;;;6.04;86.83
73633;BME280;61927;50.080;14.418;2024-02-28T05:57:18;99590.09;;;5.98;86.39
73633;BME280;61927;50.080;14.418;2024-02-28T05:59:43;99591.63;;;6.03;86.31
73633;BME280;61927;50.080;14.418;2024-02-28T06:02:10;99596.50;;;6.12;86.31
73633;BME280;61927;50.080;14.418;2024-02-28T06:04:35;99601.88;;;5.88;86.70
73633;BME280;61927;50.080;14.418;2024-02-28T06:07:01;99601.56;;;5.97;86.05
73633;BME280;61927;50.080;14.418;2024-02-28T06:09:26;99602.63;;;6.13;85.54
73633;BME280;61927;50.080;14.418;2024-02-28T06:11:55;99607.69;;;5.97;86.12
73633;BME280;61927;50.080;14.418;2024-02-28T06:14:20;99619.41;;;5.89;86.18
73633;BME280;61927;50.080;14.418;2024-02-28T06:16:47;99629.91;;;5.90;86.73
73633;BME280;61927;50.080;14.418;2024-02-28T06:19:12;99617.22;;;6.00;86.04
73633;BME280;61927;50.080;14.418;2024-02-28T06:21:38;99618.94;;;6.01;86.22
73633;BME280;61927;50.080;14.418;2024-02-28T06:24:03;99626.50;;;5.87;86.25
73633;BME280;61927;50.080;14.418;2024-02-28T06:26:30;99633.28;;;5.94;85.86
73633;BME280;61927;50.080;14.418;2024-02-28T06:28:59;99631.44;;;5.96;85.56
73633;BME280;61927;50.080;14.418;2024-02-28T06:31:27;99640.25;;;5.95;85.89
73633;BME280;61927;50.080;14.418;2024-02-28T06:33:55;99639.63;;;5.88;85.86
73633;BME280;61927;50.080;14.418;2024-02-28T06:36:21;99634.63;;;6.04;85.10
73633;BME280;61927;50.080;14.418;2024-02-28T06:38:46;99634.78;;;6.21;84.11
73633;BME280;61927;50.080;14.418;2024-02-28T06:41:12;99630.94;;;6.08;84.44
73633;BME280;61927;50.080;14.418;2024-02-28T06:43:38;99635.47;;;6.04;84.14
73633;BME280;61927;50.080;14.418;2024-02-28T06:46:04;99644.78;;;5.91;84.72
73633;BME280;61927;50.080;14.418;2024-02-28T06:48:30;99636.59;;;5.99;84.85
73633;BME280;61927;50.080;14.418;2024-02-28T06:50:56;99636.59;;;5.99;84.71
73633;BME280;61927;50.080;14.418;2024-02-28T06:53:21;99641.00;;;5.98;84.18
73633;BME280;61927;50.080;14.418;2024-02-28T06:55:47;99637.44;;;5.99;84.62
73633;BME280;61927;50.080;14.418;2024-02-28T06:58:14;99644.53;;;6.19;84.31
73633;BME280;61927;50.080;14.418;2024-02-28T07:00:40;99640.53;;;6.31;83.20
73633;BME280;61927;50.080;14.418;2024-02-28T07:03:06;99654.41;;;6.14;83.66
73633;BME280;61927;50.080;14.418;2024-02-28T07:05:33;99637.69;;;6.15;84.06
73633;BME280;61927;50.080;14.418;2024-02-28T07:07:59;99648.41;;;6.10;83.44
73633;BME280;61927;50.080;14.418;2024-02-28T07:10:25;99651.16;;;6.07;83.64
73633;BME280;61927;50.080;14.418;2024-02-28T07:12:50;99662.25;;;6.15;84.11
73633;BME280;61927;50.080;14.418;2024-02-28T07:15:16;99656.56;;;6.04;84.29
73633;BME280;61927;50.080;14.418;2024-02-28T07:17:45;99655.88;;;5.99;84.51
73633;BME280;61927;50.080;14.418;2024-02-28T07:20:11;99660.75;;;5.87;84.66
73633;BME280;61927;50.080;14.418;2024-02-28T07:22:38;99660.59;;;5.91;84.95
73633;BME280;61927;50.080;14.418;2024-02-28T07:25:05;99668.38;;;6.16;83.60
73633;BME280;61927;50.080;14.418;2024-02-28T07:27:31;99668.94;;;6.24;83.39
73633;BME280;61927;50.080;14.418;2024-02-28T07:30:04;99670.63;;;6.25;82.96
73633;BME280;61927;50.080;14.418;2024-02-28T07:32:32;99660.16;;;6.24;82.84
73633;BME280;61927;50.080;14.418;2024-02-28T07:35:02;99667.13;;;6.46;82.21
73633;BME280;61927;50.080;14.418;2024-02-28T07:37:34;99668.34;;;6.38;81.88
73633;BME280;61927;50.080;14.418;2024-02-28T07:40:00;99669.47;;;6.32;81.97
73633;BME280;61927;50.080;14.418;2024-02-28T07:42:28;99674.88;;;6.29;82.55
73633;BME280;61927;50.080;14.418;2024-02-28T07:44:54;99684.56;;;6.29;82.10
73633;BME280;61927;50.080;14.418;2024-02-28T07:47:27;99676.69;;;6.27;82.62
73633;BME280;61927;50.080;14.418;2024-02-28T07:49:54;99683.47;;;6.55;81.64
73633;BME280;61927;50.080;14.418;2024-02-28T07:52:20;99678.88;;;6.60;81.18
73633;BME280;61927;50.080;14.418;2024-02-28T07:54:48;99687.75;;;6.57;80.89
73633;BME280;61927;50.080;14.418;2024-02-28T07:57:14;99678.41;;;6.50;80.59
73633;BME280;61927;50.080;14.418;2024-02-28T07:59:42;99684.06;;;6.61;81.03
73633;BME280;61927;50.080;14.418;2024-02-28T08:02:08;99692.19;;;6.77;79.58
73633;BME280;61927;50.080;14.418;2024-02-28T08:04:36;99695.34;;;6.65;80.47
73633;BME280;61927;50.080;14.418;2024-02-28T08:07:01;99697.09;;;6.86;79.28
73633;BME280;61927;50.080;14.418;2024-02-28T08:09:28;99703.44;;;6.60;80.08
73633;BME280;61927;50.080;14.418;2024-02-28T08:11:53;99704.28;;;6.83;79.17
73633;BME280;61927;50.080;14.418;2024-02-28T08:14:19;99709.47;;;6.84;79.19
73633;BME280;61927;50.080;14.418;2024-02-28T08:16:50;99713.16;;;6.60;79.57
73633;BME280;61927;50.080;14.418;2024-02-28T08:19:18;99724.94;;;6.51;80.35
73633;BME280;61927;50.080;14.418;2024-02-28T08:21:45;99717.25;;;6.67;80.19
73633;BME280;61927;50.080;14.418;2024-02-28T08:24:11;99721.50;;;6.49;80.45
73633;BME280;61927;50.080;14.418;2024-02-28T08:26:40;99714.63;;;6.87;79.70
73633;BME280;61927;50.080;14.418;2024-02-28T08:29:09;99723.53;;;6.85;78.84
73633;BME280;61927;50.080;14.418;2024-02-28T08:31:43;99726.41;;;6.78;79.61
73633;BME280;61927;50.080;14.418;2024-02-28T08:34:11;99731.75;;;6.77;80.21
73633;BME280;61927;50.080;14.418;2024-02-28T08:36:40;99736.44;;;6.70;79.67
73633;BME280;61927;50.080;14.418;2024-02-28T08:39:09;99742.47;;;6.52;80.97
73633;BME280;61927;50.080;14.418;2024-02-28T08:41:41;99741.59;;;6.52;80.80
73633;BME280;61927;50.080;14.418;2024-02-28T08:44:07;99744.00;;;6.58;81.24
73633;BME280;61927;50.080;14.418;2024-02-28T08:46:33;99751.03;;;6.57;81.52
73633;BME280;61927;50.080;14.418;2024-02-28T08:49:03;99743.47;;;6.70;81.25
73633;BME280;61927;50.080;14.418;2024-02-28T08:51:32;99740.16;;;6.87;80.18
73633;BME280;61927;50.080;14.418;2024-02-28T08:54:00;99748.44;;;6.77;80.02
73633;BME280;61927;50.080;14.418;2024-02-28T08:56:26;99741.56;;;6.73;80.31
73633;BME280;61927;50.080;14.418;2024-02-28T08:58:52;99748.75;;;6.70;80.82
73633;BME280;61927;50.080;14.418;2024-02-28T09:01:18;99751.03;;;6.57;81.66
73633;BME280;61927;50.080;14.418;2024-02-28T09:03:44;99761.75;;;6.74;80.88
73633;BME280;61927;50.080;14.418;2024-02-28T09:06:09;99761.72;;;6.96;80.40
73633;BME280;61927;50.080;14.418;2024-02-28T09:08:37;99759.41;;;6.89;79.07
73633;BME280;61927;50.080;14.418;2024-02-28T09:11:06;99770.41;;;6.78;80.02
73633;BME280;61927;50.080;14.418;2024-02-28T09:13:33;99769.44;;;6.59;80.48
73633;BME280;61927;50.080;14.418;2024-02-28T09:16:08;99760.44;;;6.85;80.24
73633;BME280;61927;50.080;14.418;2024-02-28T09:18:37;99773.97;;;6.77;79.85
73633;BME280;61927;50.080;14.418;2024-02-28T09:21:04;99768.69;;;6.77;80.21
73633;BME280;61927;50.080;14.418;2024-02-28T09:23:30;99773.09;;;6.76;79.57
73633;BME280;61927;50.080;14.418;2024-02-28T09:26:04;99775.81;;;6.75;80.32
73633;BME280;61927;50.080;14.418;2024-02-28T09:28:31;99759.84;;;6.78;79.25
73633;BME280;61927;50.080;14.418;2024-02-28T09:31:01;99760.84;;;6.75;80.03
73633;BME280;61927;50.080;14.418;2024-02-28T09:33:33;99765.53;;;6.89;79.57
73633;BME280;61927;50.080;14.418;2024-02-28T09:35:58;99761.53;;;7.21;78.32
73633;BME280;61927;50.080;14.418;2024-02-28T09:38:31;99761.00;;;6.93;79.04
73633;BME280;61927;50.080;14.418;2024-02-28T09:40:58;99762.31;;;7.03;79.02
73633;BME280;61927;50.080;14.418;2024-02-28T09:43:28;99762.38;;;7.01;78.95
73633;BME280;61927;50.080;14.418;2024-02-28T09:46:04;99769.38;;;7.02;79.33
73633;BME280;61927;50.080;14.418;2024-02-28T09:48:31;99774.75;;;6.79;80.25
73633;BME280;61927;50.080;14.418;2024-02-28T09:51:00;99764.81;;;6.86;79.35
73633;BME280;61927;50.080;14.418;2024-02-28T09:53:32;99772.06;;;7.01;78.80
73633;BME280;61927;50.080;14.418;2024-02-28T09:55:58;99778.00;;;6.86;79.02
73633;BME280;61927;50.080;14.418;2024-02-28T09:58:27;99776.63;;;7.18;78.99
73633;BME280;61927;50.080;14.418;2024-02-28T10:00:56;99779.41;;;7.15;77.77
73633;BME280;61927;50.080;14.418;2024-02-28T10:03:25;99788.38;;;7.10;78.19
73633;BME280;61927;50.080;14.418;2024-02-28T10:05:52;99787.19;;;7.38;77.03
73633;BME280;61927;50.080;14.418;2024-02-28T10:08:17;99789.31;;;7.09;77.38
73633;BME280;61927;50.080;14.418;2024-02-28T10:10:47;99790.09;;;7.11;77.76
73633;BME280;61927;50.080;14.418;2024-02-28T10:13:15;99801.25;;;7.18;77.21
73633;BME280;61927;50.080;14.418;2024-02-28T10:15:41;99795.75;;;7.02;78.25
73633;BME280;61927;50.080;14.418;2024-02-28T10:18:07;99797.34;;;7.47;76.53
73633;BME280;61927;50.080;14.418;2024-02-28T10:20:33;99803.75;;;7.41;76.24
73633;BME280;61927;50.080;14.418;2024-02-28T10:22:59;99807.00;;;7.28;76.93
73633;BME280;61927;50.080;14.418;2024-02-28T10:25:24;99798.75;;;7.35;76.78
73633;BME280;61927;50.080;14.418;2024-02-28T10:27:51;99797.44;;;7.45;75.83
73633;BME280;61927;50.080;14.418;2024-02-28T10:30:19;99803.78;;;7.81;74.48
73633;BME280;61927;50.080;14.418;2024-02-28T10:32:49;99805.88;;;7.54;75.04
73633;BME280;61927;50.080;14.418;2024-02-28T10:35:16;99802.09;;;7.59;74.64
73633;BME280;61927;50.080;14.418;2024-02-28T10:37:44;99807.84;;;7.69;75.04
73633;BME280;61927;50.080;14.418;2024-02-28T10:40:12;99799.47;;;7.59;74.92
73633;BME280;61927;50.080;14.418;2024-02-28T10:42:42;99791.66;;;7.76;74.55
73633;BME280;61927;50.080;14.418;2024-02-28T10:45:09;99802.41;;;8.11;73.87
73633;BME280;61927;50.080;14.418;2024-02-28T10:47:38;99807.47;;;7.97;73.25
73633;BME280;61927;50.080;14.418;2024-02-28T10:50:04;99813.38;;;7.83;74.33
73633;BME280;61927;50.080;14.418;2024-02-28T10:52:43;99821.44;;;7.60;74.42
73633;BME280;61927;50.080;14.418;2024-02-28T10:55:13;99814.94;;;7.87;74.23
73633;BME280;61927;50.080;14.418;2024-02-28T10:57:40;99815.22;;;7.81;74.23
73633;BME280;61927;50.080;14.418;2024-02-28T11:00:07;99819.16;;;7.91;73.73
73633;BME280;61927;50.080;14.418;2024-02-28T11:02:34;99828.63;;;7.76;74.31
73633;BME280;61927;50.080;14.418;2024-02-28T11:05:00;99830.50;;;7.54;75.19
73633;BME280;61927;50.080;14.418;2024-02-28T11:07:27;99833.25;;;7.51;75.43
73633;BME280;61927;50.080;14.418;2024-02-28T11:09:55;99833.13;;;7.54;75.32
73633;BME280;61927;50.080;14.418;2024-02-28T11:12:28;99836.56;;;7.76;74.95
73633;BME280;61927;50.080;14.418;2024-02-28T11:15:16;99842.78;;;7.55;74.58
73633;BME280;61927;50.080;14.418;2024-02-28T11:17:42;99848.31;;;7.29;75.49
73633;BME280;61927;50.080;14.418;2024-02-28T11:20:12;99846.59;;;7.28;76.09
73633;BME280;61927;50.080;14.418;2024-02-28T11:22:39;99841.97;;;7.33;75.33
73633;BME280;61927;50.080;14.418;2024-02-28T11:25:05;99857.16;;;7.28;76.30
73633;BME280;61927;50.080;14.418;2024-02-28T11:27:31;99856.88;;;7.34;76.52
73633;BME280;61927;50.080;14.418;2024-02-28T11:29:57;99845.41;;;7.35;76.63
73633;BME280;61927;50.080;14.418;2024-02-28T11:32:26;99838.88;;;7.43;76.17
73633;BME280;61927;50.080;14.418;2024-02-28T11:34:51;99843.31;;;7.43;75.69
73633;BME280;61927;50.080;14.418;2024-02-28T11:37:18;99842.13;;;7.50;75.26
73633;BME280;61927;50.080;14.418;2024-02-28T11:39:47;99846.19;;;7.57;75.05
73633;BME280;61927;50.080;14.418;2024-02-28T11:42:14;99848.03;;;7.35;75.48
73633;BME280;61927;50.080;14.418;2024-02-28T11:44:40;99845.00;;;7.44;75.71
73633;BME280;61927;50.080;14.418;2024-02-28T11:47:09;99851.88;;;7.68;75.15
73633;BME280;61927;50.080;14.418;2024-02-28T11:49:39;99856.78;;;7.57;74.50
73633;BME280;61927;50.080;14.418;2024-02-28T11:52:05;99852.34;;;7.58;75.31
73633;BME280;61927;50.080;14.418;2024-02-28T11:54:31;99854.38;;;7.71;74.85
73633;BME280;61927;50.080;14.418;2024-02-28T11:57:04;99853.34;;;7.55;75.26
73633;BME280;61927;50.080;14.418;2024-02-28T12:03:45;99853.34;;;7.55;74.91
73633;BME280;61927;50.080;14.418;2024-02-28T12:06:35;99854.72;;;7.43;75.49
73633;BME280;61927;50.080;14.418;2024-02-28T12:09:27;99860.19;;;7.59;75.45
73633;BME280;61927;50.080;14.418;2024-02-28T12:12:13;99861.44;;;7.91;74.51
73633;BME280;61927;50.080;14.418;2024-02-28T12:14:52;99871.72;;;7.97;73.29
73633;BME280;61927;50.080;14.418;2024-02-28T12:17:25;99864.34;;;7.85;73.29
73633;BME280;61927;50.080;14.418;2024-02-28T12:20:08;99867.97;;;7.83;73.32
73633;BME280;61927;50.080;14.418;2024-02-28T12:23:03;99861.72;;;7.85;73.09
73633;BME280;61927;50.080;14.418;2024-02-28T12:25:40;99862.56;;;7.65;73.92
73633;BME280;61927;50.080;14.418;2024-02-28T12:28:09;99858.72;;;7.93;73.06
73633;BME280;61927;50.080;14.418;2024-02-28T12:30:44;99861.59;;;8.07;72.60
73633;BME280;61927;50.080;14.418;2024-02-28T12:33:11;99854.19;;;7.76;73.02
73633;BME280;61927;50.080;14.418;2024-02-28T12:35:48;99861.59;;;7.68;73.55
73633;BME280;61927;50.080;14.418;2024-02-28T12:38:30;99866.75;;;7.71;73.82
73633;BME280;61927;50.080;14.418;2024-02-28T12:40:59;99864.00;;;7.93;73.07
73633;BME280;61927;50.080;14.418;2024-02-28T12:43:25;99861.44;;;7.91;72.91
73633;BME280;61927;50.080;14.418;2024-02-28T12:45:51;99868.63;;;7.88;73.00
73633;BME280;61927;50.080;14.418;2024-02-28T12:48:17;99865.25;;;8.04;72.60
73633;BME280;61927;50.080;14.418;2024-02-28T12:50:43;99864.28;;;7.87;73.13
73633;BME280;61927;50.080;14.418;2024-02-28T12:53:11;99862.94;;;7.97;72.89
73633;BME280;61927;50.080;14.418;2024-02-28T12:55:39;99863.25;;;8.09;72.42
73633;BME280;61927;50.080;14.418;2024-02-28T12:58:14;99865.69;;;7.75;73.77
73633;BME280;61927;50.080;14.418;2024-02-28T13:00:49;99880.84;;;7.90;73.10
73633;BME280;61927;50.080;14.418;2024-02-28T13:03:18;99874.75;;;8.08;72.66
73633;BME280;61927;50.080;14.418;2024-02-28T13:06:01;99876.69;;;7.85;73.64